Time;durP1;ratioP1;P1;durP2;ratioP2;P2;SDS_P1;SDS_P2;PMS_P1;PMS_P2;Temp;Humidity;BMP_temperature;BMP_pressure;BME280_temperature;BME280_humidity;BME280_pressure;Samples;Min_cycle;Max_cycle;Signal;HPM_P1;HPM_P2
2023/08/26 00:00:33;;;;;;;;;;;;;;;;;;5092244;28;20008;-71
2023/08/26 00:02:59;;;;;;;;;;;;;;;;;;5091967;28;19954;-71
2023/08/26 00:05:25;;;;;;;;;;;;;;;;;;5092266;28;19991;-73
2023/08/26 00:07:51;;;;;;;;;;;;;;;;;;5092032;28;20365;-71
2023/08/26 00:12:16;;;;;;;;;;;;;;;;;;5127528;27;19934;-72
2023/08/26 00:14:42;;;;;;;;;;;;;;;;;;5111861;28;20350;-72
2023/08/26 00:17:08;;;;;;;;;;;;;;;;;;5112633;28;19912;-72
2023/08/26 00:20:52;;;;;;;;;;;;;;;;;;5112800;27;19916;-71
2023/08/26 00:27:23;;;;;;;;;;;;;;;;;;5071149;28;19916;-70
2023/08/26 00:29:49;;;;;;;;;;;;;;;;;;5069968;28;20309;-71
2023/08/26 00:32:15;;;;;;;;;;;;;;;;;;5071146;28;19913;-71
2023/08/26 00:34:43;;;;;;;;;;;;;;;;;;5070797;28;19908;-71
2023/08/26 00:37:09;;;;;;;;;;;;;;;;;;5071031;28;19939;-71
2023/08/26 00:39:34;;;;;;;;;;;;;;;;;;5073011;28;19909;-72
2023/08/26 00:42:00;;;;;;;;;;;;;;;;;;5072064;28;19915;-72
2023/08/26 00:46:38;;;;;;;;;;;;;;;;;;5091679;27;20277;-71
2023/08/26 00:49:04;;;;;;;;;;;;;;;;;;5091061;28;20007;-71
2023/08/26 00:51:30;;;;;;;;;;;;;;;;;;5091404;28;19912;-71
2023/08/26 00:53:56;;;;;;;;;;;;;;;;;;5090013;28;20311;-71
2023/08/26 00:56:22;;;;;;;;;;;;;;;;;;5090805;28;19909;-72
2023/08/26 01:00:35;;;;;;;;;;;;;;;;;;5071630;28;19917;-71
2023/08/26 01:03:01;;;;;;;;;;;;;;;;;;5070748;28;20003;-71
2023/08/26 01:07:29;;;;;;;;;;;;;;;;;;5091394;27;19918;-71
2023/08/26 01:09:55;;;;;;;;;;;;;;;;;;5090895;28;19999;-70
2023/08/26 01:12:21;;;;;;;;;;;;;;;;;;5091532;28;20315;-73
2023/08/26 01:14:47;;;;;;;;;;;;;;;;;;5091199;28;19978;-72
2023/08/26 01:17:13;;;;;;;;;;;;;;;;;;5090668;28;19908;-71
2023/08/26 01:19:39;;;;;;;;;;;;;;;;;;5091110;28;19961;-71
2023/08/26 01:23:56;;;;;;;;;;;;;;;;;;5111393;27;19923;-71
2023/08/26 01:28:05;;;;;;;;;;;;;;;;;;5091477;27;19923;-70
2023/08/26 01:30:31;;;;;;;;;;;;;;;;;;5091108;28;20346;-71
2023/08/26 01:35:24;;;;;;;;;;;;;;;;;;5092149;27;20272;-71
2023/08/26 01:37:49;;;;;;;;;;;;;;;;;;5090824;28;19999;-71
2023/08/26 01:40:15;;;;;;;;;;;;;;;;;;5103201;28;19909;-72
2023/08/26 01:42:42;;;;;;;;;;;;;;;;;;5099576;28;19909;-72
2023/08/26 01:45:09;;;;;;;;;;;;;;;;;;5097466;28;19908;-71
2023/08/26 01:47:34;;;;;;;;;;;;;;;;;;5091182;28;19915;-71
2023/08/26 01:50:00;;;;;;;;;;;;;;;;;;5089802;28;19908;-71
2023/08/26 01:53:41;;;;;;;;;;;;;;;;;;5152925;27;19917;-71
2023/08/26 01:58:14;;;;;;;;;;;;;;;;;;5111463;27;19938;-70
2023/08/26 02:00:40;;;;;;;;;;;;;;;;;;5110793;28;20383;-70
2023/08/26 02:03:06;;;;;;;;;;;;;;;;;;5111678;28;20333;-71
2023/08/26 02:08:32;;;;;;;;;;;;;;;;;;5112310;27;19916;-70
2023/08/26 02:10:58;;;;;;;;;;;;;;;;;;5111622;28;20342;-71
2023/08/26 02:13:24;;;;;;;;;;;;;;;;;;5111098;28;19908;-71
2023/08/26 02:17:46;;;;;;;;;;;;;;;;;;5091936;27;19916;-71
2023/08/26 02:20:12;;;;;;;;;;;;;;;;;;5089589;28;20320;-70
2023/08/26 02:22:38;;;;;;;;;;;;;;;;;;5091110;28;19985;-70
2023/08/26 02:26:29;;;;;;;;;;;;;;;;;;5091337;28;20291;-71
2023/08/26 02:28:55;;;;;;;;;;;;;;;;;;5091181;28;19912;-71
2023/08/26 02:31:21;;;;;;;;;;;;;;;;;;5091145;28;20433;-70
2023/08/26 02:33:47;;;;;;;;;;;;;;;;;;5090929;28;19952;-71
2023/08/26 02:39:49;;;;;;;;;;;;;;;;;;5111656;27;19916;-71
2023/08/26 02:42:50;;;;;;;;;;;;;;;;;;5091669;27;19912;-71
2023/08/26 02:45:15;;;;;;;;;;;;;;;;;;5091207;28;20350;-71
2023/08/26 02:47:41;;;;;;;;;;;;;;;;;;5090763;28;19908;-72
2023/08/26 02:50:07;;;;;;;;;;;;;;;;;;5091120;28;19914;-71
2023/08/26 02:53:44;;;;;;;;;;;;;;;;;;5112245;27;19916;-71
2023/08/26 02:56:10;;;;;;;;;;;;;;;;;;5111640;28;20007;-71
2023/08/26 03:01:37;;;;;;;;;;;;;;;;;;5091146;27;19917;-70
2023/08/26 03:09:41;;;;;;;;;;;;;;;;;;5091089;27;19923;-71
2023/08/26 03:12:52;;;;;;;;;;;;;;;;;;5091646;28;19916;-71
2023/08/26 03:17:41;;;;;;;;;;;;;;;;;;5112114;27;20049;-71
2023/08/26 03:20:07;;;;;;;;;;;;;;;;;;5111562;28;19999;-71
2023/08/26 03:22:32;;;;;;;;;;;;;;;;;;5111239;28;20275;-71
2023/08/26 03:24:58;;;;;;;;;;;;;;;;;;5111489;28;20360;-71
2023/08/26 03:27:25;;;;;;;;;;;;;;;;;;5111798;28;19908;-71
2023/08/26 03:29:50;;;;;;;;;;;;;;;;;;5111454;28;19964;-71
2023/08/26 03:32:36;;;;;;;;;;;;;;;;;;5112356;27;20324;-71
2023/08/26 03:37:05;;;;;;;;;;;;;;;;;;5111795;27;19938;-71
2023/08/26 03:39:32;;;;;;;;;;;;;;;;;;5112620;28;19912;-71
2023/08/26 03:41:57;;;;;;;;;;;;;;;;;;5111487;28;19908;-72
2023/08/26 03:47:16;;;;;;;;;;;;;;;;;;5071584;28;19917;-71
2023/08/26 03:49:42;;;;;;;;;;;;;;;;;;5071030;28;20007;-71
2023/08/26 03:52:08;;;;;;;;;;;;;;;;;;5069248;28;19909;-70
2023/08/26 03:58:16;;;;;;;;;;;;;;;;;;5091334;27;19923;-71
2023/08/26 04:00:42;;;;;;;;;;;;;;;;;;5090245;28;20003;-71
2023/08/26 04:03:08;;;;;;;;;;;;;;;;;;5091361;28;19974;-71
2023/08/26 04:07:23;;;;;;;;;;;;;;;;;;5111696;27;19916;-71
2023/08/26 04:14:05;;;;;;;;;;;;;;;;;;5111719;27;19912;-71
2023/08/26 04:16:31;;;;;;;;;;;;;;;;;;5111634;28;19912;-71
2023/08/26 04:18:57;;;;;;;;;;;;;;;;;;5111364;28;19908;-71
2023/08/26 04:21:23;;;;;;;;;;;;;;;;;;5111660;28;19919;-70
2023/08/26 04:23:49;;;;;;;;;;;;;;;;;;5111458;28;20391;-71
2023/08/26 04:26:15;;;;;;;;;;;;;;;;;;5111107;28;19974;-70
2023/08/26 04:31:03;;;;;;;;;;;;;;;;;;5112125;27;19916;-71
2023/08/26 04:35:46;;;;;;;;;;;;;;;;;;5091999;27;19918;-71
2023/08/26 04:38:13;;;;;;;;;;;;;;;;;;5091257;28;20002;-70
2023/08/26 04:40:41;;;;;;;;;;;;;;;;;;5090765;28;19999;-70
2023/08/26 04:44:43;;;;;;;;;;;;;;;;;;5112488;27;19923;-70
2023/08/26 04:47:09;;;;;;;;;;;;;;;;;;5111251;28;19912;-70
2023/08/26 04:49:34;;;;;;;;;;;;;;;;;;5111649;28;19908;-70
2023/08/26 04:52:00;;;;;;;;;;;;;;;;;;5110171;28;19973;-70
2023/08/26 04:54:26;;;;;;;;;;;;;;;;;;5109732;28;19908;-70
2023/08/26 04:56:52;;;;;;;;;;;;;;;;;;5111695;28;19912;-70
2023/08/26 05:00:18;;;;;;;;;;;;;;;;;;5153351;27;19922;-70
2023/08/26 05:04:37;;;;;;;;;;;;;;;;;;5152945;27;20022;-71
2023/08/26 05:09:51;;;;;;;;;;;;;;;;;;5112158;27;19916;-70
2023/08/26 05:13:39;;;;;;;;;;;;;;;;;;5111898;27;20299;-70
2023/08/26 05:16:05;;;;;;;;;;;;;;;;;;5111323;28;19998;-70
2023/08/26 05:18:31;;;;;;;;;;;;;;;;;;5110285;28;19908;-70
2023/08/26 05:20:57;;;;;;;;;;;;;;;;;;5111640;28;19908;-70
2023/08/26 05:23:23;;;;;;;;;;;;;;;;;;5111018;28;19915;-71
2023/08/26 05:25:49;;;;;;;;;;;;;;;;;;5111508;28;19958;-71
2023/08/26 05:30:35;;;;;;;;;;;;;;;;;;5091099;27;19919;-71
2023/08/26 05:33:01;;;;;;;;;;;;;;;;;;5091312;28;19996;-70
2023/08/26 05:35:27;;;;;;;;;;;;;;;;;;5091287;28;20355;-70
2023/08/26 05:39:00;;;;;;;;;;;;;;;;;;5153445;27;20010;-70
2023/08/26 05:41:26;;;;;;;;;;;;;;;;;;5152912;27;20379;-71
2023/08/26 05:45:50;;;;;;;;;;;;;;;;;;5091728;27;20287;-71
2023/08/26 05:48:16;;;;;;;;;;;;;;;;;;5091485;28;19999;-71
2023/08/26 05:50:42;;;;;;;;;;;;;;;;;;5090886;28;20368;-71
2023/08/26 05:53:08;;;;;;;;;;;;;;;;;;5091257;28;19961;-71
2023/08/26 05:57:23;;;;;;;;;;;;;;;;;;5111694;27;19916;-70
2023/08/26 05:59:48;;;;;;;;;;;;;;;;;;5111695;28;20022;-71
2023/08/26 06:02:14;;;;;;;;;;;;;;;;;;5110231;28;20427;-71
2023/08/26 06:04:40;;;;;;;;;;;;;;;;;;5111116;28;20382;-70
2023/08/26 06:07:06;;;;;;;;;;;;;;;;;;5111452;28;19915;-71
2023/08/26 06:09:32;;;;;;;;;;;;;;;;;;5111403;28;19919;-71
2023/08/26 06:12:43;;;;;;;;;;;;;;;;;;5111338;27;20307;-71
2023/08/26 06:16:49;;;;;;;;;;;;;;;;;;5111946;27;19916;-70
2023/08/26 06:19:14;;;;;;;;;;;;;;;;;;5111225;28;19974;-70
2023/08/26 06:21:40;;;;;;;;;;;;;;;;;;5111731;28;19911;-70
2023/08/26 06:24:37;;;;;;;;;;;;;;;;;;5092009;27;20348;-70
2023/08/26 06:29:44;;;;;;;;;;;;;;;;;;5091515;27;19916;-71
2023/08/26 06:32:10;;;;;;;;;;;;;;;;;;5090953;28;19912;-71
2023/08/26 06:34:36;;;;;;;;;;;;;;;;;;5091240;28;20422;-71
2023/08/26 06:37:02;;;;;;;;;;;;;;;;;;5091161;28;19961;-71
2023/08/26 06:39:28;;;;;;;;;;;;;;;;;;5090722;28;20435;-71
2023/08/26 06:41:54;;;;;;;;;;;;;;;;;;5091053;28;19908;-71
2023/08/26 06:44:20;;;;;;;;;;;;;;;;;;5090889;28;19955;-71
2023/08/26 06:47:31;;;;;;;;;;;;;;;;;;5111123;27;19916;-71
2023/08/26 06:49:57;;;;;;;;;;;;;;;;;;5111530;28;19999;-71
2023/08/26 06:52:23;;;;;;;;;;;;;;;;;;5111568;28;19908;-71
2023/08/26 06:56:50;;;;;;;;;;;;;;;;;;5111780;27;19912;-71
2023/08/26 07:01:35;;;;;;;;;;;;;;;;;;5111134;27;19922;-71
2023/08/26 07:05:03;;;;;;;;;;;;;;;;;;5111676;27;19916;-71
2023/08/26 07:07:29;;;;;;;;;;;;;;;;;;5111067;28;19912;-71
2023/08/26 07:09:55;;;;;;;;;;;;;;;;;;5111380;28;20291;-70
2023/08/26 07:12:21;;;;;;;;;;;;;;;;;;5111358;28;19912;-70
2023/08/26 07:14:47;;;;;;;;;;;;;;;;;;5110902;28;19908;-71
2023/08/26 07:17:17;;;;;;;;;;;;;;;;;;5111325;28;19912;-71
2023/08/26 07:19:42;;;;;;;;;;;;;;;;;;5111569;28;19912;-71
2023/08/26 07:22:08;;;;;;;;;;;;;;;;;;5110999;28;19931;-70
2023/08/26 07:24:34;;;;;;;;;;;;;;;;;;5111204;28;19939;-71
2023/08/26 07:27:00;;;;;;;;;;;;;;;;;;5111386;28;19909;-71
2023/08/26 07:29:26;;;;;;;;;;;;;;;;;;5111212;28;20453;-71
2023/08/26 07:31:52;;;;;;;;;;;;;;;;;;5111279;28;19957;-71
2023/08/26 07:36:12;;;;;;;;;;;;;;;;;;5091408;27;19917;-71
2023/08/26 07:38:38;;;;;;;;;;;;;;;;;;5091261;28;20027;-71
2023/08/26 07:41:04;;;;;;;;;;;;;;;;;;5091130;28;19962;-70
2023/08/26 07:43:31;;;;;;;;;;;;;;;;;;5090654;28;20391;-71
2023/08/26 07:45:57;;;;;;;;;;;;;;;;;;5091075;28;19962;-71
2023/08/26 07:48:23;;;;;;;;;;;;;;;;;;5091051;28;19912;-70
2023/08/26 07:50:49;;;;;;;;;;;;;;;;;;5090590;28;19915;-71
2023/08/26 07:53:15;;;;;;;;;;;;;;;;;;5089642;28;19915;-70
2023/08/26 07:55:41;;;;;;;;;;;;;;;;;;5090811;28;19924;-71
2023/08/26 07:58:07;;;;;;;;;;;;;;;;;;5090602;28;19995;-72
2023/08/26 08:00:33;;;;;;;;;;;;;;;;;;5090867;28;19909;-71
2023/08/26 08:02:59;;;;;;;;;;;;;;;;;;5090719;28;19915;-71
2023/08/26 08:05:25;;;;;;;;;;;;;;;;;;5089002;28;19909;-71
2023/08/26 08:07:51;;;;;;;;;;;;;;;;;;5090700;28;19944;-73
2023/08/26 08:10:17;;;;;;;;;;;;;;;;;;5090297;28;19947;-71
2023/08/26 08:12:42;;;;;;;;;;;;;;;;;;5090654;28;19919;-72
2023/08/26 08:15:09;;;;;;;;;;;;;;;;;;5090788;28;19971;-71
2023/08/26 08:17:35;;;;;;;;;;;;;;;;;;5090427;28;19912;-72
2023/08/26 08:20:02;;;;;;;;;;;;;;;;;;5091022;28;19932;-71
2023/08/26 08:22:28;;;;;;;;;;;;;;;;;;5090605;28;20287;-72
2023/08/26 08:24:54;;;;;;;;;;;;;;;;;;5090710;28;19915;-72
2023/08/26 08:27:20;;;;;;;;;;;;;;;;;;5090577;28;19948;-71
2023/08/26 08:29:46;;;;;;;;;;;;;;;;;;5089029;28;19908;-72
2023/08/26 08:32:12;;;;;;;;;;;;;;;;;;5089893;28;19978;-71
2023/08/26 08:34:38;;;;;;;;;;;;;;;;;;5089961;28;19929;-71
2023/08/26 08:37:04;;;;;;;;;;;;;;;;;;5089011;28;19908;-71
2023/08/26 08:39:30;;;;;;;;;;;;;;;;;;5089788;28;19999;-71
2023/08/26 08:41:56;;;;;;;;;;;;;;;;;;5090534;28;20319;-72
2023/08/26 08:44:22;;;;;;;;;;;;;;;;;;5090500;28;20372;-72
2023/08/26 08:46:48;;;;;;;;;;;;;;;;;;5081276;28;20368;-71
2023/08/26 08:49:13;;;;;;;;;;;;;;;;;;5077625;28;20424;-71
2023/08/26 08:51:39;;;;;;;;;;;;;;;;;;5077108;28;20249;-71
2023/08/26 08:54:05;;;;;;;;;;;;;;;;;;5076043;28;20261;-72
2023/08/26 08:56:34;;;;;;;;;;;;;;;;;;5075036;28;19912;-71
2023/08/26 08:59:01;;;;;;;;;;;;;;;;;;5075005;28;19909;-72
2023/08/26 09:01:27;;;;;;;;;;;;;;;;;;5075868;28;20013;-72
2023/08/26 09:03:53;;;;;;;;;;;;;;;;;;5074920;28;20011;-72
2023/08/26 09:06:22;;;;;;;;;;;;;;;;;;5076170;28;19909;-72
2023/08/26 09:08:48;;;;;;;;;;;;;;;;;;5075808;28;20275;-72
2023/08/26 09:11:14;;;;;;;;;;;;;;;;;;5076380;28;19999;-71
2023/08/26 09:13:40;;;;;;;;;;;;;;;;;;5075674;28;19944;-72
2023/08/26 09:16:06;;;;;;;;;;;;;;;;;;5075919;28;19917;-71
2023/08/26 09:18:32;;;;;;;;;;;;;;;;;;5076097;28;19918;-72
2023/08/26 09:20:58;;;;;;;;;;;;;;;;;;5075433;28;19919;-72
2023/08/26 09:23:24;;;;;;;;;;;;;;;;;;5074587;28;19909;-72
2023/08/26 09:25:50;;;;;;;;;;;;;;;;;;5076060;28;19908;-72
2023/08/26 09:28:16;;;;;;;;;;;;;;;;;;5075587;28;19952;-72
2023/08/26 09:30:42;;;;;;;;;;;;;;;;;;5075884;28;19919;-72
2023/08/26 09:33:08;;;;;;;;;;;;;;;;;;5075682;28;19908;-72
2023/08/26 09:35:34;;;;;;;;;;;;;;;;;;5074950;28;19942;-72
2023/08/26 09:38:00;;;;;;;;;;;;;;;;;;5075683;28;20007;-71
2023/08/26 09:40:26;;;;;;;;;;;;;;;;;;5075707;28;19909;-72
2023/08/26 09:42:52;;;;;;;;;;;;;;;;;;5075240;28;19908;-71
2023/08/26 09:45:18;;;;;;;;;;;;;;;;;;5074115;28;20253;-72
2023/08/26 09:47:44;;;;;;;;;;;;;;;;;;5075443;28;20271;-71
2023/08/26 09:50:10;;;;;;;;;;;;;;;;;;5073796;28;19908;-71
2023/08/26 09:52:36;;;;;;;;;;;;;;;;;;5075337;28;19915;-71
2023/08/26 09:55:02;;;;;;;;;;;;;;;;;;5075331;28;19998;-71
2023/08/26 09:57:28;;;;;;;;;;;;;;;;;;5074080;28;19909;-71
2023/08/26 09:59:54;;;;;;;;;;;;;;;;;;5075020;28;19908;-70
2023/08/26 10:02:21;;;;;;;;;;;;;;;;;;5075276;28;19995;-71
2023/08/26 10:04:47;;;;;;;;;;;;;;;;;;5073340;28;19954;-71
2023/08/26 10:07:13;;;;;;;;;;;;;;;;;;5075963;28;20360;-70
2023/08/26 10:09:38;;;;;;;;;;;;;;;;;;5075092;28;19912;-71
2023/08/26 10:12:04;;;;;;;;;;;;;;;;;;5073352;28;19914;-71
2023/08/26 10:14:30;;;;;;;;;;;;;;;;;;5073517;28;19963;-72
2023/08/26 10:16:56;;;;;;;;;;;;;;;;;;5074544;28;19909;-71
2023/08/26 10:19:22;;;;;;;;;;;;;;;;;;5074741;28;20387;-71
2023/08/26 10:21:48;;;;;;;;;;;;;;;;;;5074748;28;20383;-71
2023/08/26 10:24:14;;;;;;;;;;;;;;;;;;5074325;28;20372;-71
2023/08/26 10:26:40;;;;;;;;;;;;;;;;;;5074563;28;20265;-71
2023/08/26 10:29:06;;;;;;;;;;;;;;;;;;5073365;28;19914;-71
2023/08/26 10:31:33;;;;;;;;;;;;;;;;;;5074271;28;19912;-71
2023/08/26 10:34:02;;;;;;;;;;;;;;;;;;5074741;28;19919;-71
2023/08/26 10:36:28;;;;;;;;;;;;;;;;;;5074825;28;20416;-72
2023/08/26 10:38:55;;;;;;;;;;;;;;;;;;5073899;28;20003;-72
2023/08/26 10:41:21;;;;;;;;;;;;;;;;;;5074449;28;20003;-72
2023/08/26 10:43:47;;;;;;;;;;;;;;;;;;5075143;28;19979;-72
2023/08/26 10:46:13;;;;;;;;;;;;;;;;;;5074607;28;20006;-72
2023/08/26 10:48:39;;;;;;;;;;;;;;;;;;5074274;28;19916;-72
2023/08/26 10:51:05;;;;;;;;;;;;;;;;;;5074360;28;20417;-72
2023/08/26 10:53:32;;;;;;;;;;;;;;;;;;5073909;28;20329;-72
2023/08/26 10:55:58;;;;;;;;;;;;;;;;;;5074366;28;19916;-72
2023/08/26 10:58:24;;;;;;;;;;;;;;;;;;5074159;28;19915;-72
2023/08/26 11:00:50;;;;;;;;;;;;;;;;;;5073697;28;19908;-72
2023/08/26 11:03:16;;;;;;;;;;;;;;;;;;5074312;28;19969;-72
2023/08/26 11:05:42;;;;;;;;;;;;;;;;;;5074059;28;19973;-72
2023/08/26 11:08:08;;;;;;;;;;;;;;;;;;5072337;28;20280;-72
2023/08/26 11:10:34;;;;;;;;;;;;;;;;;;5073710;28;19908;-72
2023/08/26 11:13:00;;;;;;;;;;;;;;;;;;5073978;28;19940;-72
2023/08/26 11:15:26;;;;;;;;;;;;;;;;;;5074279;28;20378;-72
2023/08/26 11:17:52;;;;;;;;;;;;;;;;;;5073925;28;20341;-72
2023/08/26 11:20:18;;;;;;;;;;;;;;;;;;5073467;28;20391;-72
2023/08/26 11:22:44;;;;;;;;;;;;;;;;;;5073743;28;19952;-72
2023/08/26 11:25:10;;;;;;;;;;;;;;;;;;5074401;28;20326;-72
2023/08/26 11:27:36;;;;;;;;;;;;;;;;;;5073414;28;19931;-72
2023/08/26 11:30:02;;;;;;;;;;;;;;;;;;5072509;28;19931;-72
2023/08/26 11:32:28;;;;;;;;;;;;;;;;;;5073730;28;19961;-72
2023/08/26 11:34:54;;;;;;;;;;;;;;;;;;5073076;28;19920;-72
2023/08/26 11:37:20;;;;;;;;;;;;;;;;;;5073675;28;19908;-72
2023/08/26 11:39:46;;;;;;;;;;;;;;;;;;5073746;28;19908;-71
2023/08/26 11:42:12;;;;;;;;;;;;;;;;;;5073148;28;19936;-71
2023/08/26 11:44:38;;;;;;;;;;;;;;;;;;5073598;28;19970;-71
2023/08/26 11:47:04;;;;;;;;;;;;;;;;;;5073478;28;19947;-70
2023/08/26 11:49:30;;;;;;;;;;;;;;;;;;5073057;28;19953;-71
2023/08/26 11:51:56;;;;;;;;;;;;;;;;;;5073524;28;19914;-71
2023/08/26 11:54:22;;;;;;;;;;;;;;;;;;5072179;28;20280;-72
2023/08/26 11:56:48;;;;;;;;;;;;;;;;;;5073381;28;19913;-71
2023/08/26 11:59:14;;;;;;;;;;;;;;;;;;5073579;28;20257;-72
2023/08/26 12:01:40;;;;;;;;;;;;;;;;;;5073903;28;20357;-71
2023/08/26 12:04:06;;;;;;;;;;;;;;;;;;5073063;28;19908;-71
2023/08/26 12:06:32;;;;;;;;;;;;;;;;;;5073272;28;19908;-72
2023/08/26 12:08:58;;;;;;;;;;;;;;;;;;5073365;28;19909;-71
2023/08/26 12:11:24;;;;;;;;;;;;;;;;;;5072914;28;19962;-72
2023/08/26 12:13:50;;;;;;;;;;;;;;;;;;5073363;28;19913;-72
2023/08/26 12:16:16;;;;;;;;;;;;;;;;;;5071811;28;20384;-72
2023/08/26 12:18:42;;;;;;;;;;;;;;;;;;5072780;28;19909;-71
2023/08/26 12:21:08;;;;;;;;;;;;;;;;;;5073902;28;20285;-71
2023/08/26 12:23:34;;;;;;;;;;;;;;;;;;5075203;28;20026;-72
2023/08/26 12:26:00;;;;;;;;;;;;;;;;;;5075660;28;19912;-71
2023/08/26 12:28:26;;;;;;;;;;;;;;;;;;5076824;28;19909;-71
2023/08/26 12:30:52;;;;;;;;;;;;;;;;;;5076602;28;19914;-72
2023/08/26 12:33:18;;;;;;;;;;;;;;;;;;5076653;28;19909;-72
2023/08/26 12:35:44;;;;;;;;;;;;;;;;;;5075256;28;19921;-72
2023/08/26 12:38:09;;;;;;;;;;;;;;;;;;5075009;28;20403;-72
2023/08/26 12:40:36;;;;;;;;;;;;;;;;;;5076913;28;19962;-72
2023/08/26 12:43:05;;;;;;;;;;;;;;;;;;5076585;28;19921;-72
2023/08/26 12:45:31;;;;;;;;;;;;;;;;;;5076211;28;19962;-72
2023/08/26 12:47:57;;;;;;;;;;;;;;;;;;5076562;28;20397;-72
2023/08/26 12:50:23;;;;;;;;;;;;;;;;;;5076682;28;19912;-72
2023/08/26 12:52:49;;;;;;;;;;;;;;;;;;5076115;28;19915;-73
2023/08/26 12:55:15;;;;;;;;;;;;;;;;;;5075149;28;20015;-72
2023/08/26 12:57:41;;;;;;;;;;;;;;;;;;5076501;28;19959;-73
2023/08/26 13:00:08;;;;;;;;;;;;;;;;;;5075989;28;20364;-72
2023/08/26 13:02:36;;;;;;;;;;;;;;;;;;5076561;28;20364;-72
2023/08/26 13:05:02;;;;;;;;;;;;;;;;;;5076299;28;19908;-72
2023/08/26 13:07:28;;;;;;;;;;;;;;;;;;5075828;28;19908;-72
2023/08/26 13:09:54;;;;;;;;;;;;;;;;;;5076744;28;20273;-72
2023/08/26 13:12:20;;;;;;;;;;;;;;;;;;5076155;28;20279;-72
2023/08/26 13:14:46;;;;;;;;;;;;;;;;;;5075611;28;19958;-72
2023/08/26 13:17:12;;;;;;;;;;;;;;;;;;5076045;28;19931;-72
2023/08/26 13:19:38;;;;;;;;;;;;;;;;;;5075717;28;19908;-72
2023/08/26 13:22:03;;;;;;;;;;;;;;;;;;5075904;28;19909;-72
2023/08/26 13:24:29;;;;;;;;;;;;;;;;;;5075939;28;19909;-73
2023/08/26 13:26:55;;;;;;;;;;;;;;;;;;5075740;28;19936;-73
2023/08/26 13:29:21;;;;;;;;;;;;;;;;;;5076020;28;19912;-72
2023/08/26 13:31:47;;;;;;;;;;;;;;;;;;5075707;28;19909;-71
2023/08/26 13:34:13;;;;;;;;;;;;;;;;;;5073865;28;19919;-71
2023/08/26 13:36:41;;;;;;;;;;;;;;;;;;5075817;28;19913;-72
2023/08/26 13:39:06;;;;;;;;;;;;;;;;;;5075546;28;20288;-72
2023/08/26 13:41:32;;;;;;;;;;;;;;;;;;5075111;28;19912;-72
2023/08/26 13:43:58;;;;;;;;;;;;;;;;;;5075513;28;19908;-73
2023/08/26 13:46:24;;;;;;;;;;;;;;;;;;5075719;28;19908;-73
2023/08/26 13:48:50;;;;;;;;;;;;;;;;;;5073866;28;20387;-73
2023/08/26 13:51:16;;;;;;;;;;;;;;;;;;5075604;28;20360;-73
2023/08/26 13:53:43;;;;;;;;;;;;;;;;;;5075369;28;19920;-73
2023/08/26 13:56:09;;;;;;;;;;;;;;;;;;5074827;28;19916;-73
2023/08/26 13:58:35;;;;;;;;;;;;;;;;;;5075289;28;20042;-73
2023/08/26 14:01:03;;;;;;;;;;;;;;;;;;5075260;28;19931;-72
2023/08/26 14:03:29;;;;;;;;;;;;;;;;;;5074802;28;19970;-73
2023/08/26 14:05:55;;;;;;;;;;;;;;;;;;5073839;28;19908;-73
2023/08/26 14:08:21;;;;;;;;;;;;;;;;;;5075187;28;19908;-73
2023/08/26 14:10:47;;;;;;;;;;;;;;;;;;5074683;28;19916;-74
2023/08/26 14:13:13;;;;;;;;;;;;;;;;;;5075255;28;19981;-72
2023/08/26 14:15:39;;;;;;;;;;;;;;;;;;5074811;28;19962;-73
2023/08/26 14:18:05;;;;;;;;;;;;;;;;;;5074316;28;19916;-72
2023/08/26 14:20:31;;;;;;;;;;;;;;;;;;5074746;28;19908;-72
2023/08/26 14:22:56;;;;;;;;;;;;;;;;;;5074256;28;19909;-73
2023/08/26 14:25:22;;;;;;;;;;;;;;;;;;5074721;28;19919;-73
2023/08/26 14:27:48;;;;;;;;;;;;;;;;;;5073394;28;19970;-73
2023/08/26 14:30:14;;;;;;;;;;;;;;;;;;5074452;28;20364;-72
2023/08/26 14:32:40;;;;;;;;;;;;;;;;;;5074538;28;20281;-73
2023/08/26 14:35:06;;;;;;;;;;;;;;;;;;5074508;28;20289;-72
2023/08/26 14:37:32;;;;;;;;;;;;;;;;;;5074180;28;19935;-73
2023/08/26 14:39:58;;;;;;;;;;;;;;;;;;5074463;28;20284;-72
2023/08/26 14:42:24;;;;;;;;;;;;;;;;;;5074369;28;19913;-73
2023/08/26 14:44:50;;;;;;;;;;;;;;;;;;5073429;28;20387;-73
2023/08/26 14:47:16;;;;;;;;;;;;;;;;;;5074409;28;19916;-72
2023/08/26 14:49:42;;;;;;;;;;;;;;;;;;5074536;28;19915;-72
2023/08/26 14:52:08;;;;;;;;;;;;;;;;;;5073875;28;19940;-73
2023/08/26 14:54:34;;;;;;;;;;;;;;;;;;5074310;28;20303;-72
2023/08/26 14:57:02;;;;;;;;;;;;;;;;;;5074171;28;20367;-72
2023/08/26 14:59:28;;;;;;;;;;;;;;;;;;5073708;28;19999;-72
2023/08/26 15:01:54;;;;;;;;;;;;;;;;;;5074094;28;19951;-73
2023/08/26 15:04:20;;;;;;;;;;;;;;;;;;5074087;28;19913;-73
2023/08/26 15:06:46;;;;;;;;;;;;;;;;;;5073606;28;19912;-73
2023/08/26 15:09:12;;;;;;;;;;;;;;;;;;5074051;28;20338;-72
2023/08/26 15:11:38;;;;;;;;;;;;;;;;;;5074039;28;19909;-73
2023/08/26 15:14:05;;;;;;;;;;;;;;;;;;5072062;28;20355;-73
2023/08/26 15:16:31;;;;;;;;;;;;;;;;;;5073939;28;20434;-72
2023/08/26 15:18:57;;;;;;;;;;;;;;;;;;5073723;28;20380;-71
2023/08/26 15:21:23;;;;;;;;;;;;;;;;;;5073519;28;20015;-71
2023/08/26 15:23:49;;;;;;;;;;;;;;;;;;5073920;28;19916;-71
2023/08/26 15:26:15;;;;;;;;;;;;;;;;;;5073734;28;19920;-71
2023/08/26 15:28:41;;;;;;;;;;;;;;;;;;5073337;28;19908;-71
2023/08/26 15:31:06;;;;;;;;;;;;;;;;;;5073809;28;20368;-71
2023/08/26 15:33:32;;;;;;;;;;;;;;;;;;5073245;28;20299;-72
2023/08/26 15:35:58;;;;;;;;;;;;;;;;;;5073470;28;19981;-72
2023/08/26 15:38:24;;;;;;;;;;;;;;;;;;5073892;28;19913;-72
2023/08/26 15:40:50;;;;;;;;;;;;;;;;;;5073299;28;19912;-72
2023/08/26 15:43:16;;;;;;;;;;;;;;;;;;5073549;28;19915;-72
2023/08/26 15:45:42;;;;;;;;;;;;;;;;;;5073600;28;19955;-72
2023/08/26 15:48:08;;;;;;;;;;;;;;;;;;5073118;28;19909;-72
2023/08/26 15:50:34;;;;;;;;;;;;;;;;;;5072262;28;19909;-72
2023/08/26 15:53:00;;;;;;;;;;;;;;;;;;5073431;28;19916;-72
2023/08/26 15:55:26;;;;;;;;;;;;;;;;;;5073051;28;19961;-71
2023/08/26 15:57:52;;;;;;;;;;;;;;;;;;5077053;28;20444;-71
2023/08/26 16:00:18;;;;;;;;;;;;;;;;;;5076107;28;19909;-71
2023/08/26 16:02:44;;;;;;;;;;;;;;;;;;5077146;28;20284;-72
2023/08/26 16:05:10;;;;;;;;;;;;;;;;;;5077255;28;19908;-72
2023/08/26 16:07:36;;;;;;;;;;;;;;;;;;5077599;28;19992;-72
2023/08/26 16:10:02;;;;;;;;;;;;;;;;;;5076783;28;19974;-72
2023/08/26 16:12:28;;;;;;;;;;;;;;;;;;5077195;28;19954;-72
2023/08/26 16:14:54;;;;;;;;;;;;;;;;;;5076967;28;19920;-71
2023/08/26 16:17:20;;;;;;;;;;;;;;;;;;5076765;28;19995;-72
2023/08/26 16:19:46;;;;;;;;;;;;;;;;;;5077125;28;19959;-72
2023/08/26 16:22:12;;;;;;;;;;;;;;;;;;5077035;28;20388;-71
2023/08/26 16:24:38;;;;;;;;;;;;;;;;;;5076514;28;20011;-73
2023/08/26 16:27:04;;;;;;;;;;;;;;;;;;5075744;28;19908;-72
2023/08/26 16:29:30;;;;;;;;;;;;;;;;;;5075590;28;20435;-72
2023/08/26 16:31:56;;;;;;;;;;;;;;;;;;5076571;28;19909;-72
2023/08/26 16:34:22;;;;;;;;;;;;;;;;;;5076507;28;20288;-72
2023/08/26 16:36:48;;;;;;;;;;;;;;;;;;5076312;28;20265;-71
2023/08/26 16:39:13;;;;;;;;;;;;;;;;;;5076691;28;20383;-71
2023/08/26 16:41:39;;;;;;;;;;;;;;;;;;5077043;28;20405;-71
2023/08/26 16:44:05;;;;;;;;;;;;;;;;;;5076183;28;20352;-71
2023/08/26 16:46:32;;;;;;;;;;;;;;;;;;5076787;28;19915;-71
2023/08/26 16:48:58;;;;;;;;;;;;;;;;;;5075246;28;19999;-72
2023/08/26 16:51:24;;;;;;;;;;;;;;;;;;5076116;28;19908;-72
2023/08/26 16:53:50;;;;;;;;;;;;;;;;;;5076641;28;20337;-72
2023/08/26 16:56:16;;;;;;;;;;;;;;;;;;5075052;28;20280;-72
2023/08/26 16:58:42;;;;;;;;;;;;;;;;;;5076003;28;19981;-72
2023/08/26 17:01:08;;;;;;;;;;;;;;;;;;5076396;28;19947;-72
2023/08/26 17:03:34;;;;;;;;;;;;;;;;;;5076226;28;19908;-71
2023/08/26 17:06:00;;;;;;;;;;;;;;;;;;5074557;28;19909;-72
2023/08/26 17:08:26;;;;;;;;;;;;;;;;;;5075640;28;19970;-72
2023/08/26 17:10:54;;;;;;;;;;;;;;;;;;5076055;28;20020;-73
2023/08/26 17:13:20;;;;;;;;;;;;;;;;;;5075640;28;20383;-73
2023/08/26 17:15:47;;;;;;;;;;;;;;;;;;5074485;28;19916;-72
2023/08/26 17:18:13;;;;;;;;;;;;;;;;;;5075982;28;19966;-72
2023/08/26 17:20:38;;;;;;;;;;;;;;;;;;5075590;28;19908;-72
2023/08/26 17:23:04;;;;;;;;;;;;;;;;;;5075956;28;19908;-72
2023/08/26 17:25:31;;;;;;;;;;;;;;;;;;5075809;28;19948;-72
2023/08/26 17:27:56;;;;;;;;;;;;;;;;;;5075314;28;20365;-72
2023/08/26 17:30:22;;;;;;;;;;;;;;;;;;5075832;28;19923;-74
2023/08/26 17:32:48;;;;;;;;;;;;;;;;;;5074386;28;19916;-72
2023/08/26 17:35:14;;;;;;;;;;;;;;;;;;5074952;28;19927;-71
2023/08/26 17:37:40;;;;;;;;;;;;;;;;;;5075643;28;19998;-71
2023/08/26 17:40:06;;;;;;;;;;;;;;;;;;5075036;28;19909;-72
2023/08/26 17:42:32;;;;;;;;;;;;;;;;;;5075432;28;19916;-71
2023/08/26 17:44:58;;;;;;;;;;;;;;;;;;5075584;28;20326;-72
2023/08/26 17:47:24;;;;;;;;;;;;;;;;;;5073622;28;19916;-72
2023/08/26 17:49:50;;;;;;;;;;;;;;;;;;5075813;28;19916;-72
2023/08/26 17:52:16;;;;;;;;;;;;;;;;;;5075150;28;19915;-71
2023/08/26 17:54:42;;;;;;;;;;;;;;;;;;5073413;28;19921;-71
2023/08/26 17:57:08;;;;;;;;;;;;;;;;;;5075235;28;19931;-72
2023/08/26 17:59:34;;;;;;;;;;;;;;;;;;5073738;28;20356;-72
2023/08/26 18:02:00;;;;;;;;;;;;;;;;;;5074719;28;20368;-72
2023/08/26 18:04:26;;;;;;;;;;;;;;;;;;5074981;28;19999;-72
2023/08/26 18:06:52;;;;;;;;;;;;;;;;;;5074741;28;19918;-72
2023/08/26 18:09:18;;;;;;;;;;;;;;;;;;5074682;28;19913;-73
2023/08/26 18:11:44;;;;;;;;;;;;;;;;;;5075069;28;19908;-71